Skip to main content.
Our real time weather data display below is updated continuously via our 24/7 live data feed.
 TIME   TEMPERATURE   WINDSPEED   DIRECTION   HUMIDITY   BAROMETER   RAINFALL 
7:55 11.0°C (51.8°F) 5.6 kmh (3.5 mph) WNW 87% 1019.0hPa (30.09 inHg) 0.0mm (0.00 in.)
6:55 11.0°C (51.8 °F) 7.4 kmh (4.6 mph) WNW 87% 1019.0hPa (30.09 inHg) 0.0mm (0.00 in.)
5:55 11.0°C (51.8 °F) 7.4 kmh (4.6 mph) WNW 93% 1017.9hPa (30.06 inHg) 0.0mm (0.00 in.)
4:55 11.0°C (51.8 °F) 9.3 kmh (5.8 mph) W 93% 1017.9hPa (30.06 inHg) 0.0mm (0.00 in.)
3:55 11.0°C (51.8 °F) 9.3 kmh (5.8 mph) NW 93% 1017.9hPa (30.06 inHg) 0.0mm (0.00 in.)
2:55 12.0°C (53.6 °F) 9.3 kmh (5.8 mph) NNW 87% 1017.9hPa (30.06 inHg) 0.0mm (0.00 in.)
1:55 12.0°C (53.6 °F) 14.8 kmh (9.2 mph) NW 93% 1017.9hPa (30.06 inHg) 0.0mm (0.00 in.)
0:55 12.0°C (53.6 °F) 18.5 kmh (11.5 mph) NW 93% 1017.9hPa (30.06 inHg) 0.0mm (0.00 in.)
23:55 13.0°C (55.4 °F) 20.4 kmh (12.7 mph) NW 87% 1017.9hPa (30.06 inHg) 0.0mm (0.00 in.)
22:55 14.0°C (57.2 °F) 22.2 kmh (13.8 mph) WNW 76% 1017.9hPa (30.06 inHg) 0.0mm (0.00 in.)
21:55 14.0°C (57.2 °F) 18.5 kmh (11.5 mph) WNW 76% 1017.9hPa (30.06 inHg) 0.0mm (0.00 in.)
20:55 14.0°C (57.2 °F) 24.1 kmh (15.0 mph) WNW 71% 1016.9hPa (30.03 inHg) 0.0mm (0.00 in.)
19:55 14.0°C (57.2 °F) 25.9 kmh (16.1 mph) WNW 71% 1016.9hPa (30.03 inHg) 0.0mm (0.00 in.)
18:55 16.0°C (60.8 °F) 29.6 kmh (18.4 mph) WNW 63% 1016.9hPa (30.03 inHg) 0.0mm (0.00 in.)
17:55 16.0°C (60.8 °F) 33.3 kmh (20.7 mph) WNW 63% 1015.9hPa (30.00 inHg) 0.0mm (0.00 in.)
16:55 17.0°C (62.6 °F) 33.3 kmh (20.7 mph) WNW 63% 1015.9hPa (30.00 inHg) 0.0mm (0.00 in.)
15:55 18.0°C (64.4 °F) 35.2 kmh (21.9 mph) NW 59% 1015.9hPa (30.00 inHg) 0.0mm (0.00 in.)
14:55 19.0°C (66.2 °F) 29.6 kmh (18.4 mph) WNW 52% 1015.9hPa (30.00 inHg) 0.0mm (0.00 in.)
13:55 18.0°C (64.4 °F) 27.8 kmh (17.3 mph) NW 55% 1015.9hPa (30.00 inHg) 0.0mm (0.00 in.)
12:55 18.0°C (64.4 °F) 29.6 kmh (18.4 mph) NW 48% 1016.9hPa (30.03 inHg) 0.0mm (0.00 in.)
11:55 17.0°C (62.6 °F) 29.6 kmh (18.4 mph) NNW 51% 1016.9hPa (30.03 inHg) 0.0mm (0.00 in.)
10:55 17.0°C (62.6 °F) 31.5 kmh (19.6 mph) NW 55% 1016.9hPa (30.03 inHg) 0.0mm (0.00 in.)
9:55 16.0°C (60.8 °F) 29.6 kmh (18.4 mph) NW 58% 1016.9hPa (30.03 inHg) 0.0mm (0.00 in.)
8:55 14.0°C (57.2 °F) 22.2 kmh (13.8 mph) NW 71% 1015.9hPa (30.00 inHg) 0.0mm (0.00 in.)